sensor_id;sensor_type;location;lat;lon;timestamp;temperature;humidity
80412;SHT30;69749;42.684;23.360;2024-03-08T00:00:16;9.22;66.52
80412;SHT30;69749;42.684;23.360;2024-03-08T00:02:44;9.25;65.73
80412;SHT30;69749;42.684;23.360;2024-03-08T00:05:11;9.26;65.75
80412;SHT30;69749;42.684;23.360;2024-03-08T00:07:40;9.27;65.60
80412;SHT30;69749;42.684;23.360;2024-03-08T00:10:07;9.25;65.33
80412;SHT30;69749;42.684;23.360;2024-03-08T00:12:40;9.19;65.66
80412;SHT30;69749;42.684;23.360;2024-03-08T00:15:10;9.22;65.87
80412;SHT30;69749;42.684;23.360;2024-03-08T00:17:36;9.18;65.80
80412;SHT30;69749;42.684;23.360;2024-03-08T00:20:02;9.08;66.01
80412;SHT30;69749;42.684;23.360;2024-03-08T00:22:36;9.08;66.41
80412;SHT30;69749;42.684;23.360;2024-03-08T00:25:03;9.02;66.19
80412;SHT30;69749;42.684;23.360;2024-03-08T00:27:30;8.87;66.93
80412;SHT30;69749;42.684;23.360;2024-03-08T00:29:58;8.88;67.11
80412;SHT30;69749;42.684;23.360;2024-03-08T00:32:24;8.95;67.32
80412;SHT30;69749;42.684;23.360;2024-03-08T00:34:50;9.02;67.20
80412;SHT30;69749;42.684;23.360;2024-03-08T00:37:20;9.09;67.07
80412;SHT30;69749;42.684;23.360;2024-03-08T00:39:51;9.12;66.48
80412;SHT30;69749;42.684;23.360;2024-03-08T00:42:17;9.22;66.06
80412;SHT30;69749;42.684;23.360;2024-03-08T00:44:43;9.26;66.41
80412;SHT30;69749;42.684;23.360;2024-03-08T00:47:09;9.23;66.99
80412;SHT30;69749;42.684;23.360;2024-03-08T00:49:35;9.19;67.14
80412;SHT30;69749;42.684;23.360;2024-03-08T00:52:06;9.15;67.31
80412;SHT30;69749;42.684;23.360;2024-03-08T00:54:32;9.16;67.38
80412;SHT30;69749;42.684;23.360;2024-03-08T00:56:58;9.16;67.35
80412;SHT30;69749;42.684;23.360;2024-03-08T00:59:23;9.12;66.81
80412;SHT30;69749;42.684;23.360;2024-03-08T01:01:49;9.19;66.51
80412;SHT30;69749;42.684;23.360;2024-03-08T01:04:14;9.18;66.56
80412;SHT30;69749;42.684;23.360;2024-03-08T01:06:40;9.02;67.20
80412;SHT30;69749;42.684;23.360;2024-03-08T01:09:05;8.95;67.76
80412;SHT30;69749;42.684;23.360;2024-03-08T01:11:33;8.92;68.02
80412;SHT30;69749;42.684;23.360;2024-03-08T01:13:59;8.92;67.90
80412;SHT30;69749;42.684;23.360;2024-03-08T01:16:24;8.95;68.09
80412;SHT30;69749;42.684;23.360;2024-03-08T01:18:50;8.89;68.10
80412;SHT30;69749;42.684;23.360;2024-03-08T01:21:15;8.68;68.80
80412;SHT30;69749;42.684;23.360;2024-03-08T01:23:41;8.58;69.13
80412;SHT30;69749;42.684;23.360;2024-03-08T01:26:07;8.41;69.96
80412;SHT30;69749;42.684;23.360;2024-03-08T01:28:33;8.41;69.93
80412;SHT30;69749;42.684;23.360;2024-03-08T01:31:00;8.51;69.32
80412;SHT30;69749;42.684;23.360;2024-03-08T01:33:26;8.58;68.85
80412;SHT30;69749;42.684;23.360;2024-03-08T01:35:52;8.63;68.46
80412;SHT30;69749;42.684;23.360;2024-03-08T01:38:19;8.68;68.58
80412;SHT30;69749;42.684;23.360;2024-03-08T01:40:46;8.77;68.17
80412;SHT30;69749;42.684;23.360;2024-03-08T01:43:38;8.81;68.15
80412;SHT30;69749;42.684;23.360;2024-03-08T01:46:05;8.88;67.86
80412;SHT30;69749;42.684;23.360;2024-03-08T01:48:31;8.91;66.78
80412;SHT30;69749;42.684;23.360;2024-03-08T01:50:57;8.88;67.01
80412;SHT30;69749;42.684;23.360;2024-03-08T01:53:24;8.92;67.30
80412;SHT30;69749;42.684;23.360;2024-03-08T01:55:53;8.89;67.08
80412;SHT30;69749;42.684;23.360;2024-03-08T01:58:20;8.93;67.38
80412;SHT30;69749;42.684;23.360;2024-03-08T02:00:48;8.71;67.52
80412;SHT30;69749;42.684;23.360;2024-03-08T02:03:17;8.63;68.03
80412;SHT30;69749;42.684;23.360;2024-03-08T02:05:43;8.63;67.63
80412;SHT30;69749;42.684;23.360;2024-03-08T02:08:11;8.41;68.08
80412;SHT30;69749;42.684;23.360;2024-03-08T02:10:49;8.51;68.40
80412;SHT30;69749;42.684;23.360;2024-03-08T02:13:14;8.56;68.16
80412;SHT30;69749;42.684;23.360;2024-03-08T02:15:58;8.58;67.99
80412;SHT30;69749;42.684;23.360;2024-03-08T02:18:25;8.61;68.16
80412;SHT30;69749;42.684;23.360;2024-03-08T02:20:54;8.69;68.06
80412;SHT30;69749;42.684;23.360;2024-03-08T02:23:20;8.56;67.03
80412;SHT30;69749;42.684;23.360;2024-03-08T02:25:46;8.63;66.47
80412;SHT30;69749;42.684;23.360;2024-03-08T02:28:13;8.67;66.08
80412;SHT30;69749;42.684;23.360;2024-03-08T02:30:39;8.75;65.66
80412;SHT30;69749;42.684;23.360;2024-03-08T02:33:05;8.78;65.25
80412;SHT30;69749;42.684;23.360;2024-03-08T02:35:34;8.72;65.50
80412;SHT30;69749;42.684;23.360;2024-03-08T02:37:59;8.54;65.36
80412;SHT30;69749;42.684;23.360;2024-03-08T02:40:25;8.48;66.24
80412;SHT30;69749;42.684;23.360;2024-03-08T02:42:51;8.47;66.42
80412;SHT30;69749;42.684;23.360;2024-03-08T02:45:16;8.44;66.91
80412;SHT30;69749;42.684;23.360;2024-03-08T02:47:42;8.50;67.01
80412;SHT30;69749;42.684;23.360;2024-03-08T02:50:08;8.44;66.04
80412;SHT30;69749;42.684;23.360;2024-03-08T02:52:34;8.44;64.91
80412;SHT30;69749;42.684;23.360;2024-03-08T02:55:01;8.34;64.99
80412;SHT30;69749;42.684;23.360;2024-03-08T02:57:27;8.32;64.33
80412;SHT30;69749;42.684;23.360;2024-03-08T02:59:53;8.25;63.75
80412;SHT30;69749;42.684;23.360;2024-03-08T03:02:19;8.22;63.62
80412;SHT30;69749;42.684;23.360;2024-03-08T03:04:44;8.16;64.20
80412;SHT30;69749;42.684;23.360;2024-03-08T03:07:10;8.13;63.03
80412;SHT30;69749;42.684;23.360;2024-03-08T03:09:36;8.14;64.05
80412;SHT30;69749;42.684;23.360;2024-03-08T03:12:02;7.99;63.29
80412;SHT30;69749;42.684;23.360;2024-03-08T03:14:27;7.93;64.54
80412;SHT30;69749;42.684;23.360;2024-03-08T03:16:53;8.02;64.81
80412;SHT30;69749;42.684;23.360;2024-03-08T03:19:20;8.09;63.83
80412;SHT30;69749;42.684;23.360;2024-03-08T03:21:46;8.09;63.48
80412;SHT30;69749;42.684;23.360;2024-03-08T03:24:11;8.13;63.07
80412;SHT30;69749;42.684;23.360;2024-03-08T03:26:40;8.12;64.19
80412;SHT30;69749;42.684;23.360;2024-03-08T03:29:06;8.06;63.25
80412;SHT30;69749;42.684;23.360;2024-03-08T03:31:33;8.06;63.54
80412;SHT30;69749;42.684;23.360;2024-03-08T03:33:59;8.00;63.62
80412;SHT30;69749;42.684;23.360;2024-03-08T03:36:28;7.88;64.01
80412;SHT30;69749;42.684;23.360;2024-03-08T03:38:54;7.72;64.57
80412;SHT30;69749;42.684;23.360;2024-03-08T03:41:30;7.69;64.04
80412;SHT30;69749;42.684;23.360;2024-03-08T03:43:56;7.78;64.58
80412;SHT30;69749;42.684;23.360;2024-03-08T03:46:21;7.79;64.60
80412;SHT30;69749;42.684;23.360;2024-03-08T03:48:47;7.81;64.54
80412;SHT30;69749;42.684;23.360;2024-03-08T03:51:12;7.72;63.59
80412;SHT30;69749;42.684;23.360;2024-03-08T03:53:40;7.65;64.06
80412;SHT30;69749;42.684;23.360;2024-03-08T03:56:06;7.74;64.30
80412;SHT30;69749;42.684;23.360;2024-03-08T03:58:32;7.83;64.11
80412;SHT30;69749;42.684;23.360;2024-03-08T04:00:58;7.86;64.79
80412;SHT30;69749;42.684;23.360;2024-03-08T04:03:24;7.92;64.91
80412;SHT30;69749;42.684;23.360;2024-03-08T04:05:49;7.98;63.48
80412;SHT30;69749;42.684;23.360;2024-03-08T04:08:16;7.95;62.53
80412;SHT30;69749;42.684;23.360;2024-03-08T04:10:42;7.96;62.95
80412;SHT30;69749;42.684;23.360;2024-03-08T04:13:08;8.00;62.87
80412;SHT30;69749;42.684;23.360;2024-03-08T04:15:35;7.99;62.94
80412;SHT30;69749;42.684;23.360;2024-03-08T04:18:00;7.89;63.15
80412;SHT30;69749;42.684;23.360;2024-03-08T04:20:26;7.54;64.22
80412;SHT30;69749;42.684;23.360;2024-03-08T04:22:51;7.65;64.05
80412;SHT30;69749;42.684;23.360;2024-03-08T04:25:17;7.79;64.33
80412;SHT30;69749;42.684;23.360;2024-03-08T04:27:43;7.83;64.25
80412;SHT30;69749;42.684;23.360;2024-03-08T04:30:10;7.89;64.31
80412;SHT30;69749;42.684;23.360;2024-03-08T04:32:35;7.99;64.19
80412;SHT30;69749;42.684;23.360;2024-03-08T04:35:01;8.06;64.12
80412;SHT30;69749;42.684;23.360;2024-03-08T04:37:27;8.12;63.83
80412;SHT30;69749;42.684;23.360;2024-03-08T04:39:55;8.16;63.56
80412;SHT30;69749;42.684;23.360;2024-03-08T04:42:20;8.19;63.43
80412;SHT30;69749;42.684;23.360;2024-03-08T04:44:46;8.16;63.38
80412;SHT30;69749;42.684;23.360;2024-03-08T04:47:12;8.09;63.76
80412;SHT30;69749;42.684;23.360;2024-03-08T04:49:37;8.07;63.94
80412;SHT30;69749;42.684;23.360;2024-03-08T04:52:03;8.07;63.96
80412;SHT30;69749;42.684;23.360;2024-03-08T04:54:30;8.02;63.80
80412;SHT30;69749;42.684;23.360;2024-03-08T04:56:55;7.88;64.24
80412;SHT30;69749;42.684;23.360;2024-03-08T04:59:21;7.92;64.83
80412;SHT30;69749;42.684;23.360;2024-03-08T05:01:46;7.98;64.41
80412;SHT30;69749;42.684;23.360;2024-03-08T05:04:13;7.99;64.84
80412;SHT30;69749;42.684;23.360;2024-03-08T05:06:38;8.03;65.01
80412;SHT30;69749;42.684;23.360;2024-03-08T05:09:04;8.06;65.25
80412;SHT30;69749;42.684;23.360;2024-03-08T05:11:42;8.22;64.57
80412;SHT30;69749;42.684;23.360;2024-03-08T05:14:09;8.20;64.46
80412;SHT30;69749;42.684;23.360;2024-03-08T05:16:35;8.22;64.18
80412;SHT30;69749;42.684;23.360;2024-03-08T05:19:01;8.20;64.32
80412;SHT30;69749;42.684;23.360;2024-03-08T05:21:27;8.02;64.56
80412;SHT30;69749;42.684;23.360;2024-03-08T05:23:54;7.99;65.06
80412;SHT30;69749;42.684;23.360;2024-03-08T05:26:20;7.89;65.46
80412;SHT30;69749;42.684;23.360;2024-03-08T05:28:47;7.99;65.17
80412;SHT30;69749;42.684;23.360;2024-03-08T05:31:20;7.82;65.80
80412;SHT30;69749;42.684;23.360;2024-03-08T05:33:48;7.78;66.50
80412;SHT30;69749;42.684;23.360;2024-03-08T05:36:13;7.78;65.52
80412;SHT30;69749;42.684;23.360;2024-03-08T05:38:40;7.69;65.60
80412;SHT30;69749;42.684;23.360;2024-03-08T05:41:07;7.83;65.43
80412;SHT30;69749;42.684;23.360;2024-03-08T05:43:33;7.78;65.19
80412;SHT30;69749;42.684;23.360;2024-03-08T05:45:58;7.72;65.46
80412;SHT30;69749;42.684;23.360;2024-03-08T05:48:24;7.75;65.75
80412;SHT30;69749;42.684;23.360;2024-03-08T05:50:50;7.58;66.41
80412;SHT30;69749;42.684;23.360;2024-03-08T05:53:16;7.59;66.57
80412;SHT30;69749;42.684;23.360;2024-03-08T05:55:41;7.71;66.74
80412;SHT30;69749;42.684;23.360;2024-03-08T05:58:07;7.41;67.40
80412;SHT30;69749;42.684;23.360;2024-03-08T06:00:34;7.17;67.94
80412;SHT30;69749;42.684;23.360;2024-03-08T06:03:01;7.23;68.47
80412;SHT30;69749;42.684;23.360;2024-03-08T06:05:27;7.27;68.75
80412;SHT30;69749;42.684;23.360;2024-03-08T06:07:53;7.46;68.69
80412;SHT30;69749;42.684;23.360;2024-03-08T06:10:19;7.44;68.41
80412;SHT30;69749;42.684;23.360;2024-03-08T06:12:44;7.31;68.59
80412;SHT30;69749;42.684;23.360;2024-03-08T06:15:10;7.38;68.72
80412;SHT30;69749;42.684;23.360;2024-03-08T06:17:42;7.23;68.08
80412;SHT30;69749;42.684;23.360;2024-03-08T06:20:08;6.97;69.07
80412;SHT30;69749;42.684;23.360;2024-03-08T06:22:38;7.06;68.91
80412;SHT30;69749;42.684;23.360;2024-03-08T06:25:09;7.01;67.88
80412;SHT30;69749;42.684;23.360;2024-03-08T06:27:41;6.99;66.71
80412;SHT30;69749;42.684;23.360;2024-03-08T06:30:08;6.90;65.56
80412;SHT30;69749;42.684;23.360;2024-03-08T06:32:35;7.13;65.64
80412;SHT30;69749;42.684;23.360;2024-03-08T06:35:02;7.13;65.39
80412;SHT30;69749;42.684;23.360;2024-03-08T06:37:34;7.28;64.87
80412;SHT30;69749;42.684;23.360;2024-03-08T06:40:00;7.31;64.93
80412;SHT30;69749;42.684;23.360;2024-03-08T06:42:27;7.34;63.96
80412;SHT30;69749;42.684;23.360;2024-03-08T06:44:53;7.51;64.00
80412;SHT30;69749;42.684;23.360;2024-03-08T06:47:21;7.47;63.86
80412;SHT30;69749;42.684;23.360;2024-03-08T06:49:47;7.41;63.34
80412;SHT30;69749;42.684;23.360;2024-03-08T06:52:14;7.28;63.52
80412;SHT30;69749;42.684;23.360;2024-03-08T06:54:40;7.38;63.36
80412;SHT30;69749;42.684;23.360;2024-03-08T06:57:06;7.38;63.50
80412;SHT30;69749;42.684;23.360;2024-03-08T06:59:34;7.55;63.39
80412;SHT30;69749;42.684;23.360;2024-03-08T07:02:01;7.32;63.72
80412;SHT30;69749;42.684;23.360;2024-03-08T07:04:27;7.54;63.02
80412;SHT30;69749;42.684;23.360;2024-03-08T07:06:58;7.59;62.17
80412;SHT30;69749;42.684;23.360;2024-03-08T07:09:24;7.79;61.88
80412;SHT30;69749;42.684;23.360;2024-03-08T07:11:52;7.89;61.15
80412;SHT30;69749;42.684;23.360;2024-03-08T07:14:23;8.00;61.02
80412;SHT30;69749;42.684;23.360;2024-03-08T07:16:50;8.02;61.88
80412;SHT30;69749;42.684;23.360;2024-03-08T07:19:16;8.17;61.74
80412;SHT30;69749;42.684;23.360;2024-03-08T07:21:45;8.32;61.75
80412;SHT30;69749;42.684;23.360;2024-03-08T07:24:12;8.40;60.87
80412;SHT30;69749;42.684;23.360;2024-03-08T07:27:05;8.50;60.62
80412;SHT30;69749;42.684;23.360;2024-03-08T07:29:31;8.43;60.36
80412;SHT30;69749;42.684;23.360;2024-03-08T07:31:56;8.19;61.14
80412;SHT30;69749;42.684;23.360;2024-03-08T07:34:28;8.26;61.66
80412;SHT30;69749;42.684;23.360;2024-03-08T07:36:57;8.50;61.22
80412;SHT30;69749;42.684;23.360;2024-03-08T07:39:23;8.68;60.90
80412;SHT30;69749;42.684;23.360;2024-03-08T07:41:49;8.87;60.32
80412;SHT30;69749;42.684;23.360;2024-03-08T07:44:18;9.02;59.98
80412;SHT30;69749;42.684;23.360;2024-03-08T07:46:43;9.05;60.78
80412;SHT30;69749;42.684;23.360;2024-03-08T07:49:09;9.06;60.73
80412;SHT30;69749;42.684;23.360;2024-03-08T07:51:37;9.12;59.44
80412;SHT30;69749;42.684;23.360;2024-03-08T07:54:03;9.22;58.73
80412;SHT30;69749;42.684;23.360;2024-03-08T07:56:30;9.19;59.07
80412;SHT30;69749;42.684;23.360;2024-03-08T07:58:56;9.19;58.99
80412;SHT30;69749;42.684;23.360;2024-03-08T08:01:21;9.27;59.80
80412;SHT30;69749;42.684;23.360;2024-03-08T08:03:47;9.20;59.42
80412;SHT30;69749;42.684;23.360;2024-03-08T08:06:15;9.14;58.55
80412;SHT30;69749;42.684;23.360;2024-03-08T08:08:44;9.19;59.08
80412;SHT30;69749;42.684;23.360;2024-03-08T08:11:10;9.19;58.48
80412;SHT30;69749;42.684;23.360;2024-03-08T08:13:41;9.23;58.81
80412;SHT30;69749;42.684;23.360;2024-03-08T08:16:09;9.30;57.03
80412;SHT30;69749;42.684;23.360;2024-03-08T08:18:36;9.40;57.64
80412;SHT30;69749;42.684;23.360;2024-03-08T08:21:05;9.50;55.78
80412;SHT30;69749;42.684;23.360;2024-03-08T08:23:32;9.77;56.32
80412;SHT30;69749;42.684;23.360;2024-03-08T08:25:58;10.28;54.48
80412;SHT30;69749;42.684;23.360;2024-03-08T08:28:24;10.56;53.24
80412;SHT30;69749;42.684;23.360;2024-03-08T08:30:50;10.74;51.73
80412;SHT30;69749;42.684;23.360;2024-03-08T08:33:16;10.84;51.09
80412;SHT30;69749;42.684;23.360;2024-03-08T08:35:41;10.81;51.13
80412;SHT30;69749;42.684;23.360;2024-03-08T08:38:08;11.03;51.20
80412;SHT30;69749;42.684;23.360;2024-03-08T08:40:34;11.08;51.34
80412;SHT30;69749;42.684;23.360;2024-03-08T08:43:01;11.30;50.83
80412;SHT30;69749;42.684;23.360;2024-03-08T08:45:30;11.78;48.49
80412;SHT30;69749;42.684;23.360;2024-03-08T08:47:56;12.58;46.65
80412;SHT30;69749;42.684;23.360;2024-03-08T08:50:22;13.09;45.73
80412;SHT30;69749;42.684;23.360;2024-03-08T08:52:50;13.71;43.84
80412;SHT30;69749;42.684;23.360;2024-03-08T08:55:16;14.60;41.73
80412;SHT30;69749;42.684;23.360;2024-03-08T08:57:46;14.84;40.88
80412;SHT30;69749;42.684;23.360;2024-03-08T09:00:13;14.98;41.50
80412;SHT30;69749;42.684;23.360;2024-03-08T09:02:41;15.24;41.03
80412;SHT30;69749;42.684;23.360;2024-03-08T09:05:07;15.25;40.24
80412;SHT30;69749;42.684;23.360;2024-03-08T09:07:36;15.15;41.14
80412;SHT30;69749;42.684;23.360;2024-03-08T09:10:03;15.73;40.12
80412;SHT30;69749;42.684;23.360;2024-03-08T09:12:29;16.31;38.42
80412;SHT30;69749;42.684;23.360;2024-03-08T09:14:54;16.96;38.39
80412;SHT30;69749;42.684;23.360;2024-03-08T09:17:20;17.18;36.70
80412;SHT30;69749;42.684;23.360;2024-03-08T09:19:49;16.98;35.90
80412;SHT30;69749;42.684;23.360;2024-03-08T09:22:15;17.15;36.68
80412;SHT30;69749;42.684;23.360;2024-03-08T09:24:40;17.16;37.21
80412;SHT30;69749;42.684;23.360;2024-03-08T09:27:08;16.98;37.54
80412;SHT30;69749;42.684;23.360;2024-03-08T09:29:35;17.16;37.12
80412;SHT30;69749;42.684;23.360;2024-03-08T09:32:00;17.43;36.75
80412;SHT30;69749;42.684;23.360;2024-03-08T09:34:26;17.40;37.11
80412;SHT30;69749;42.684;23.360;2024-03-08T09:36:52;16.73;38.52
80412;SHT30;69749;42.684;23.360;2024-03-08T09:39:18;16.50;38.31
80412;SHT30;69749;42.684;23.360;2024-03-08T09:41:46;16.71;38.02
80412;SHT30;69749;42.684;23.360;2024-03-08T09:44:15;16.47;38.17
80412;SHT30;69749;42.684;23.360;2024-03-08T09:46:42;16.09;37.86
80412;SHT30;69749;42.684;23.360;2024-03-08T09:49:08;16.13;37.98
80412;SHT30;69749;42.684;23.360;2024-03-08T09:51:34;15.96;37.98
80412;SHT30;69749;42.684;23.360;2024-03-08T09:54:05;16.31;40.46
80412;SHT30;69749;42.684;23.360;2024-03-08T09:56:35;16.50;40.40
80412;SHT30;69749;42.684;23.360;2024-03-08T09:59:01;16.45;38.83
80412;SHT30;69749;42.684;23.360;2024-03-08T10:01:45;16.41;38.35
80412;SHT30;69749;42.684;23.360;2024-03-08T10:04:11;16.54;39.21
80412;SHT30;69749;42.684;23.360;2024-03-08T10:06:39;16.31;37.60
80412;SHT30;69749;42.684;23.360;2024-03-08T10:09:05;15.90;39.18
80412;SHT30;69749;42.684;23.360;2024-03-08T10:11:33;15.66;40.47
80412;SHT30;69749;42.684;23.360;2024-03-08T10:13:59;15.79;40.17
80412;SHT30;69749;42.684;23.360;2024-03-08T10:16:27;15.52;39.70
80412;SHT30;69749;42.684;23.360;2024-03-08T10:18:53;15.31;40.97
80412;SHT30;69749;42.684;23.360;2024-03-08T10:21:19;15.36;40.09
80412;SHT30;69749;42.684;23.360;2024-03-08T10:23:44;15.83;39.01
80412;SHT30;69749;42.684;23.360;2024-03-08T10:26:14;15.85;39.72
80412;SHT30;69749;42.684;23.360;2024-03-08T10:28:47;15.65;39.44
80412;SHT30;69749;42.684;23.360;2024-03-08T10:31:16;15.48;39.48
80412;SHT30;69749;42.684;23.360;2024-03-08T10:33:43;15.53;39.69
80412;SHT30;69749;42.684;23.360;2024-03-08T10:36:10;15.32;40.53
80412;SHT30;69749;42.684;23.360;2024-03-08T10:38:40;15.36;39.40
80412;SHT30;69749;42.684;23.360;2024-03-08T10:41:08;14.67;40.36
80412;SHT30;69749;42.684;23.360;2024-03-08T10:43:56;14.67;41.86
80412;SHT30;69749;42.684;23.360;2024-03-08T10:48:52;15.11;39.63
80412;SHT30;69749;42.684;23.360;2024-03-08T10:51:21;15.38;40.63
80412;SHT30;69749;42.684;23.360;2024-03-08T10:53:47;15.62;39.69
80412;SHT30;69749;42.684;23.360;2024-03-08T10:56:14;15.65;40.08
80412;SHT30;69749;42.684;23.360;2024-03-08T10:58:40;15.73;39.80
80412;SHT30;69749;42.684;23.360;2024-03-08T11:01:06;15.78;39.21
80412;SHT30;69749;42.684;23.360;2024-03-08T11:06:43;14.98;39.99
80412;SHT30;69749;42.684;23.360;2024-03-08T11:09:11;14.93;39.95
80412;SHT30;69749;42.684;23.360;2024-03-08T11:11:52;15.05;39.43
80412;SHT30;69749;42.684;23.360;2024-03-08T11:14:44;14.97;40.03
80412;SHT30;69749;42.684;23.360;2024-03-08T11:17:13;14.70;39.54
80412;SHT30;69749;42.684;23.360;2024-03-08T11:19:46;14.30;40.84
80412;SHT30;69749;42.684;23.360;2024-03-08T11:22:23;14.01;40.99
80412;SHT30;69749;42.684;23.360;2024-03-08T11:24:49;13.79;42.47
80412;SHT30;69749;42.684;23.360;2024-03-08T11:27:15;13.61;42.22
80412;SHT30;69749;42.684;23.360;2024-03-08T11:29:41;13.66;42.89
80412;SHT30;69749;42.684;23.360;2024-03-08T11:32:16;13.67;42.42
80412;SHT30;69749;42.684;23.360;2024-03-08T11:34:46;13.74;41.52
80412;SHT30;69749;42.684;23.360;2024-03-08T11:37:21;13.79;41.42
80412;SHT30;69749;42.684;23.360;2024-03-08T11:39:48;13.74;42.55
80412;SHT30;69749;42.684;23.360;2024-03-08T11:42:14;13.73;41.22
80412;SHT30;69749;42.684;23.360;2024-03-08T11:44:45;13.64;40.86
80412;SHT30;69749;42.684;23.360;2024-03-08T11:47:11;13.29;42.50
80412;SHT30;69749;42.684;23.360;2024-03-08T11:49:40;13.40;42.51
80412;SHT30;69749;42.684;23.360;2024-03-08T11:52:14;13.42;41.60
80412;SHT30;69749;42.684;23.360;2024-03-08T11:54:41;13.44;42.73
80412;SHT30;69749;42.684;23.360;2024-03-08T11:57:07;13.58;42.76
80412;SHT30;69749;42.684;23.360;2024-03-08T11:59:35;13.71;42.82
80412;SHT30;69749;42.684;23.360;2024-03-08T12:02:05;13.70;39.36
80412;SHT30;69749;42.684;23.360;2024-03-08T12:04:32;13.49;40.32
80412;SHT30;69749;42.684;23.360;2024-03-08T12:07:01;13.39;40.94
80412;SHT30;69749;42.684;23.360;2024-03-08T12:09:28;13.32;41.52
80412;SHT30;69749;42.684;23.360;2024-03-08T12:11:54;13.24;41.65
80412;SHT30;69749;42.684;23.360;2024-03-08T12:14:20;13.22;43.02
80412;SHT30;69749;42.684;23.360;2024-03-08T12:16:46;13.29;42.24
80412;SHT30;69749;42.684;23.360;2024-03-08T12:19:13;13.35;41.69
80412;SHT30;69749;42.684;23.360;2024-03-08T12:21:39;13.13;42.08
80412;SHT30;69749;42.684;23.360;2024-03-08T12:24:15;13.15;42.83
80412;SHT30;69749;42.684;23.360;2024-03-08T12:26:45;12.64;43.39
80412;SHT30;69749;42.684;23.360;2024-03-08T12:29:19;12.55;44.30
80412;SHT30;69749;42.684;23.360;2024-03-08T12:31:52;12.50;44.61
80412;SHT30;69749;42.684;23.360;2024-03-08T12:34:19;12.38;45.47
80412;SHT30;69749;42.684;23.360;2024-03-08T12:36:48;12.61;44.30
80412;SHT30;69749;42.684;23.360;2024-03-08T12:39:16;12.68;44.10
80412;SHT30;69749;42.684;23.360;2024-03-08T12:41:43;12.68;44.06
80412;SHT30;69749;42.684;23.360;2024-03-08T12:44:09;12.65;44.54
80412;SHT30;69749;42.684;23.360;2024-03-08T12:46:37;12.67;44.67
80412;SHT30;69749;42.684;23.360;2024-03-08T12:49:08;12.74;43.63
80412;SHT30;69749;42.684;23.360;2024-03-08T12:51:38;12.82;43.68
80412;SHT30;69749;42.684;23.360;2024-03-08T12:54:05;12.82;43.66
80412;SHT30;69749;42.684;23.360;2024-03-08T12:56:33;12.79;44.00
80412;SHT30;69749;42.684;23.360;2024-03-08T12:59:00;12.71;43.30
80412;SHT30;69749;42.684;23.360;2024-03-08T13:01:27;12.78;43.54
80412;SHT30;69749;42.684;23.360;2024-03-08T13:03:53;12.74;43.82
80412;SHT30;69749;42.684;23.360;2024-03-08T13:06:19;12.89;43.45
80412;SHT30;69749;42.684;23.360;2024-03-08T13:08:53;12.82;42.87
80412;SHT30;69749;42.684;23.360;2024-03-08T13:11:19;12.77;43.47
80412;SHT30;69749;42.684;23.360;2024-03-08T13:13:45;12.84;42.29
80412;SHT30;69749;42.684;23.360;2024-03-08T13:16:11;12.85;42.94
80412;SHT30;69749;42.684;23.360;2024-03-08T13:18:42;12.89;42.87
80412;SHT30;69749;42.684;23.360;2024-03-08T13:21:08;12.88;42.19
80412;SHT30;69749;42.684;23.360;2024-03-08T13:23:35;12.68;42.91
80412;SHT30;69749;42.684;23.360;2024-03-08T13:26:13;12.75;45.25
80412;SHT30;69749;42.684;23.360;2024-03-08T13:28:51;12.79;42.64
80412;SHT30;69749;42.684;23.360;2024-03-08T13:31:19;12.81;42.25
80412;SHT30;69749;42.684;23.360;2024-03-08T13:33:45;12.81;42.33
80412;SHT30;69749;42.684;23.360;2024-03-08T13:36:13;12.89;42.08
80412;SHT30;69749;42.684;23.360;2024-03-08T13:38:42;12.88;41.54
80412;SHT30;69749;42.684;23.360;2024-03-08T13:41:08;12.69;42.60
80412;SHT30;69749;42.684;23.360;2024-03-08T13:43:34;12.60;42.25
80412;SHT30;69749;42.684;23.360;2024-03-08T13:46:02;12.55;43.47
80412;SHT30;69749;42.684;23.360;2024-03-08T13:48:28;12.48;43.15
80412;SHT30;69749;42.684;23.360;2024-03-08T13:50:53;12.52;42.19
80412;SHT30;69749;42.684;23.360;2024-03-08T13:53:20;12.47;43.34
80412;SHT30;69749;42.684;23.360;2024-03-08T13:55:45;12.45;43.59
80412;SHT30;69749;42.684;23.360;2024-03-08T13:58:11;12.45;43.27
80412;SHT30;69749;42.684;23.360;2024-03-08T14:00:39;12.41;42.78
80412;SHT30;69749;42.684;23.360;2024-03-08T14:03:06;12.47;42.85
80412;SHT30;69749;42.684;23.360;2024-03-08T14:05:32;12.45;43.66
80412;SHT30;69749;42.684;23.360;2024-03-08T14:08:01;12.19;43.98
80412;SHT30;69749;42.684;23.360;2024-03-08T14:10:32;12.27;44.48
80412;SHT30;69749;42.684;23.360;2024-03-08T14:12:57;12.40;44.20
80412;SHT30;69749;42.684;23.360;2024-03-08T14:15:23;12.42;44.62
80412;SHT30;69749;42.684;23.360;2024-03-08T14:17:53;12.41;44.54
80412;SHT30;69749;42.684;23.360;2024-03-08T14:20:19;12.44;44.19
80412;SHT30;69749;42.684;23.360;2024-03-08T14:22:44;12.50;44.57
80412;SHT30;69749;42.684;23.360;2024-03-08T14:25:11;12.52;44.96
80412;SHT30;69749;42.684;23.360;2024-03-08T14:27:43;12.51;44.62
80412;SHT30;69749;42.684;23.360;2024-03-08T14:30:10;12.45;44.83
80412;SHT30;69749;42.684;23.360;2024-03-08T14:32:35;12.45;44.00
80412;SHT30;69749;42.684;23.360;2024-03-08T14:35:07;12.38;44.46
80412;SHT30;69749;42.684;23.360;2024-03-08T14:37:33;12.34;46.35
80412;SHT30;69749;42.684;23.360;2024-03-08T14:39:58;12.30;44.54
80412;SHT30;69749;42.684;23.360;2024-03-08T14:42:24;12.26;44.44
80412;SHT30;69749;42.684;23.360;2024-03-08T14:44:50;12.27;44.75
80412;SHT30;69749;42.684;23.360;2024-03-08T14:47:17;12.31;45.33
80412;SHT30;69749;42.684;23.360;2024-03-08T14:49:43;12.34;44.64
80412;SHT30;69749;42.684;23.360;2024-03-08T14:52:08;12.24;44.98
80412;SHT30;69749;42.684;23.360;2024-03-08T14:54:53;12.26;46.28
80412;SHT30;69749;42.684;23.360;2024-03-08T14:57:18;12.19;46.12
80412;SHT30;69749;42.684;23.360;2024-03-08T14:59:44;12.00;46.33
80412;SHT30;69749;42.684;23.360;2024-03-08T15:02:10;11.76;46.94
80412;SHT30;69749;42.684;23.360;2024-03-08T15:04:36;11.61;47.61
80412;SHT30;69749;42.684;23.360;2024-03-08T15:07:02;11.51;47.97
80412;SHT30;69749;42.684;23.360;2024-03-08T15:09:30;11.46;48.62
80412;SHT30;69749;42.684;23.360;2024-03-08T15:12:06;11.39;48.13
80412;SHT30;69749;42.684;23.360;2024-03-08T15:14:32;11.43;48.80
80412;SHT30;69749;42.684;23.360;2024-03-08T15:16:58;11.54;47.99
80412;SHT30;69749;42.684;23.360;2024-03-08T15:19:24;11.48;47.84
80412;SHT30;69749;42.684;23.360;2024-03-08T15:21:50;11.55;47.48
80412;SHT30;69749;42.684;23.360;2024-03-08T15:24:20;11.38;47.92
80412;SHT30;69749;42.684;23.360;2024-03-08T15:26:47;11.04;49.16
80412;SHT30;69749;42.684;23.360;2024-03-08T15:29:16;10.93;50.12
80412;SHT30;69749;42.684;23.360;2024-03-08T15:31:41;10.89;50.16